Time;durP1;ratioP1;P1;durP2;ratioP2;P2;SDS_P1;SDS_P2;PMS_P1;PMS_P2;Temp;Humidity;BMP_temperature;BMP_pressure;BME280_temperature;BME280_humidity;BME280_pressure;Samples;Min_cycle;Max_cycle;Signal;HPM_P1;HPM_P2
2023/02/27 00:00:17;;;;;;;3.75;2.10;;;;;;;;;;514804;28;1470;-75
2023/02/27 00:00:33;;;;;;;3.83;2.10;;;;;;;;;;515267;28;1461;-76
2023/02/27 00:00:48;;;;;;;3.77;2.03;;;;;;;;;;518706;28;1239;-75
2023/02/27 00:01:03;;;;;;;4.57;2.13;;;;;;;;;;517503;28;1368;-75
2023/02/27 00:01:19;;;;;;;4.22;2.13;;;;;;;;;;519617;28;1480;-75
2023/02/27 00:01:34;;;;;;;4.40;2.20;;;;;;;;;;518118;28;1267;-75
2023/02/27 00:01:49;;;;;;;4.40;2.15;;;;;;;;;;518283;28;1323;-73
2023/02/27 00:02:05;;;;;;;3.70;2.00;;;;;;;;;;517738;28;1174;-73
2023/02/27 00:02:20;;;;;;;4.30;2.07;;;;;;;;;;516928;28;1241;-73
2023/02/27 00:02:35;;;;;;;3.75;1.95;;;;;;;;;;518778;28;1215;-74
2023/02/27 00:02:52;;;;;;;3.03;1.80;;;;;;;;;;518936;28;1189;-74
2023/02/27 00:03:07;;;;;;;3.33;2.00;;;;;;;;;;517076;28;1316;-74
2023/02/27 00:03:23;;;;;;;3.42;2.13;;;;;;;;;;517643;28;1215;-74
2023/02/27 00:03:38;;;;;;;3.77;2.10;;;;;;;;;;517785;28;1224;-75
2023/02/27 00:03:54;;;;;;;3.90;1.95;;;;;;;;;;516951;28;1369;-74
2023/02/27 00:04:09;;;;;;;3.80;1.77;;;;;;;;;;514748;28;1314;-74
2023/02/27 00:04:24;;;;;;;3.47;1.73;;;;;;;;;;518311;28;1216;-74
2023/02/27 00:04:40;;;;;;;3.10;1.70;;;;;;;;;;516697;28;1289;-75
2023/02/27 00:04:56;;;;;;;3.10;1.60;;;;;;;;;;517462;28;1558;-74
2023/02/27 00:05:12;;;;;;;3.10;1.63;;;;;;;;;;518849;28;1307;-74
2023/02/27 00:05:28;;;;;;;3.90;1.80;;;;;;;;;;516788;28;1201;-74
2023/02/27 00:05:43;;;;;;;4.05;1.85;;;;;;;;;;516862;28;1340;-75
2023/02/27 00:05:59;;;;;;;4.33;1.80;;;;;;;;;;516818;28;1324;-74
2023/02/27 00:06:16;;;;;;;4.43;1.90;;;;;;;;;;518476;28;1300;-74
2023/02/27 00:06:31;;;;;;;3.25;1.80;;;;;;;;;;516782;28;1137;-74
2023/02/27 00:06:47;;;;;;;3.30;1.80;;;;;;;;;;520169;28;1253;-74
2023/02/27 00:07:02;;;;;;;3.45;1.95;;;;;;;;;;520689;28;1383;-74
2023/02/27 00:07:18;;;;;;;3.43;1.93;;;;;;;;;;519748;28;1332;-74
2023/02/27 00:07:33;;;;;;;3.40;1.90;;;;;;;;;;517921;28;1922;-73
2023/02/27 00:07:49;;;;;;;3.20;1.80;;;;;;;;;;519912;28;1309;-74
2023/02/27 00:08:04;;;;;;;2.95;1.70;;;;;;;;;;517742;28;1513;-74
2023/02/27 00:08:20;;;;;;;2.92;1.60;;;;;;;;;;517220;28;1311;-74
2023/02/27 00:08:35;;;;;;;3.17;1.60;;;;;;;;;;516856;28;1178;-74
2023/02/27 00:08:50;;;;;;;3.20;1.77;;;;;;;;;;517166;28;1208;-74
2023/02/27 00:09:07;;;;;;;3.00;1.80;;;;;;;;;;516744;28;1174;-74
2023/02/27 00:09:22;;;;;;;3.20;1.80;;;;;;;;;;516154;28;1441;-74
2023/02/27 00:09:39;;;;;;;3.47;1.70;;;;;;;;;;518650;28;1362;-74
2023/02/27 00:09:54;;;;;;;3.83;1.73;;;;;;;;;;518398;28;1189;-74
2023/02/27 00:10:11;;;;;;;3.42;1.80;;;;;;;;;;514154;28;1297;-74
2023/02/27 00:10:26;;;;;;;3.08;1.70;;;;;;;;;;516538;28;1390;-74
2023/02/27 00:10:42;;;;;;;3.60;1.80;;;;;;;;;;517090;28;1430;-74
2023/02/27 00:10:57;;;;;;;3.70;1.70;;;;;;;;;;516898;28;1232;-74
2023/02/27 00:11:12;;;;;;;3.42;1.80;;;;;;;;;;515716;28;1437;-74
2023/02/27 00:11:28;;;;;;;4.00;1.90;;;;;;;;;;513389;28;1299;-74
2023/02/27 00:11:43;;;;;;;3.83;1.80;;;;;;;;;;514890;28;1481;-74
2023/02/27 00:11:59;;;;;;;3.60;1.80;;;;;;;;;;517131;28;1440;-74
2023/02/27 00:12:14;;;;;;;3.43;2.00;;;;;;;;;;520153;28;1343;-74
2023/02/27 00:12:36;;;;;;;3.23;2.00;;;;;;;;;;521214;28;1273;-74
2023/02/27 00:12:51;;;;;;;3.72;1.80;;;;;;;;;;518559;28;1432;-74
2023/02/27 00:13:07;;;;;;;4.17;1.83;;;;;;;;;;519592;28;1320;-74
2023/02/27 00:13:22;;;;;;;3.73;1.80;;;;;;;;;;519539;28;1535;-74
2023/02/27 00:13:37;;;;;;;3.30;1.80;;;;;;;;;;518868;28;1454;-74
2023/02/27 00:13:53;;;;;;;3.60;1.97;;;;;;;;;;516678;28;1488;-74
2023/02/27 00:14:08;;;;;;;3.40;1.95;;;;;;;;;;519018;28;1459;-74
2023/02/27 00:14:24;;;;;;;3.23;1.90;;;;;;;;;;519045;28;1548;-74
2023/02/27 00:14:39;;;;;;;3.70;1.97;;;;;;;;;;516810;28;1316;-74
2023/02/27 00:14:54;;;;;;;3.70;2.00;;;;;;;;;;518177;28;1383;-74
2023/02/27 00:15:13;;;;;;;3.47;2.00;;;;;;;;;;516924;28;1220;-74
2023/02/27 00:15:30;;;;;;;3.75;2.00;;;;;;;;;;519629;28;1339;-74
2023/02/27 00:15:48;;;;;;;3.60;1.90;;;;;;;;;;516283;28;1389;-74
2023/02/27 00:16:04;;;;;;;3.65;1.90;;;;;;;;;;519295;28;1499;-74
2023/02/27 00:16:19;;;;;;;2.80;1.70;;;;;;;;;;521797;28;1487;-74
2023/02/27 00:16:34;;;;;;;2.67;1.60;;;;;;;;;;519136;28;1294;-74
2023/02/27 00:16:49;;;;;;;3.30;1.80;;;;;;;;;;515350;28;1294;-74
2023/02/27 00:17:05;;;;;;;3.65;1.90;;;;;;;;;;519156;28;1311;-74
2023/02/27 00:17:20;;;;;;;4.17;2.10;;;;;;;;;;516395;28;1226;-74
2023/02/27 00:17:36;;;;;;;4.67;2.10;;;;;;;;;;518071;28;1291;-74
2023/02/27 00:17:51;;;;;;;5.00;2.03;;;;;;;;;;517492;28;1500;-75
2023/02/27 00:18:07;;;;;;;4.40;2.00;;;;;;;;;;519015;28;1338;-74
2023/02/27 00:18:22;;;;;;;3.17;1.85;;;;;;;;;;519071;28;1484;-75
2023/02/27 00:18:38;;;;;;;3.60;1.90;;;;;;;;;;517954;28;1336;-75
2023/02/27 00:18:53;;;;;;;3.60;1.83;;;;;;;;;;520471;28;1366;-74
2023/02/27 00:19:08;;;;;;;3.10;1.70;;;;;;;;;;520223;28;1365;-74
2023/02/27 00:19:24;;;;;;;3.95;1.80;;;;;;;;;;520443;28;1530;-74
2023/02/27 00:19:39;;;;;;;3.63;1.80;;;;;;;;;;518889;28;1245;-74
2023/02/27 00:19:54;;;;;;;2.95;1.80;;;;;;;;;;518604;28;1362;-74
2023/02/27 00:20:14;;;;;;;3.63;1.83;;;;;;;;;;515405;28;1560;-74
2023/02/27 00:20:31;;;;;;;3.40;1.80;;;;;;;;;;516107;28;1487;-74
2023/02/27 00:20:47;;;;;;;3.10;1.70;;;;;;;;;;514090;28;1443;-74
2023/02/27 00:21:02;;;;;;;2.80;1.60;;;;;;;;;;515757;28;1529;-73
2023/02/27 00:21:18;;;;;;;2.77;1.40;;;;;;;;;;516432;28;1336;-74
2023/02/27 00:21:34;;;;;;;3.17;1.47;;;;;;;;;;515220;28;1552;-74
2023/02/27 00:21:49;;;;;;;3.55;1.70;;;;;;;;;;514233;28;1303;-74
2023/02/27 00:22:04;;;;;;;3.67;1.80;;;;;;;;;;513520;28;1346;-74
2023/02/27 00:22:20;;;;;;;3.23;1.80;;;;;;;;;;514006;28;1415;-74
2023/02/27 00:22:36;;;;;;;3.63;1.90;;;;;;;;;;516550;28;1303;-74
2023/02/27 00:22:51;;;;;;;3.67;1.90;;;;;;;;;;516174;28;1406;-74
2023/02/27 00:23:08;;;;;;;3.47;1.75;;;;;;;;;;518716;28;1334;-74
2023/02/27 00:23:23;;;;;;;3.38;1.70;;;;;;;;;;518830;28;1334;-74
2023/02/27 00:23:39;;;;;;;3.20;1.60;;;;;;;;;;519800;28;1281;-74
2023/02/27 00:23:54;;;;;;;3.63;1.70;;;;;;;;;;519020;28;1438;-74
2023/02/27 00:24:10;;;;;;;3.70;1.70;;;;;;;;;;517502;28;1479;-74
2023/02/27 00:24:25;;;;;;;4.10;1.67;;;;;;;;;;519407;28;1446;-74
2023/02/27 00:24:41;;;;;;;4.60;1.90;;;;;;;;;;516307;28;1358;-74
2023/02/27 00:24:56;;;;;;;4.10;2.00;;;;;;;;;;515430;28;1247;-74
2023/02/27 00:25:12;;;;;;;3.83;1.80;;;;;;;;;;514522;28;1266;-74
2023/02/27 00:25:27;;;;;;;3.15;1.60;;;;;;;;;;515677;28;1427;-74
2023/02/27 00:25:43;;;;;;;2.53;1.60;;;;;;;;;;517156;28;1590;-74
2023/02/27 00:25:59;;;;;;;2.63;1.50;;;;;;;;;;518929;28;1292;-74
2023/02/27 00:26:15;;;;;;;2.83;1.55;;;;;;;;;;517565;28;1410;-74
2023/02/27 00:26:30;;;;;;;3.40;1.70;;;;;;;;;;515919;28;1258;-74
2023/02/27 00:26:45;;;;;;;3.67;1.70;;;;;;;;;;517177;28;1362;-74
2023/02/27 00:27:01;;;;;;;3.17;1.55;;;;;;;;;;519852;28;1339;-74
2023/02/27 00:27:16;;;;;;;2.80;1.47;;;;;;;;;;521405;28;1315;-74
2023/02/27 00:27:32;;;;;;;3.03;1.60;;;;;;;;;;521008;28;1499;-74
2023/02/27 00:27:47;;;;;;;3.10;1.80;;;;;;;;;;518299;28;1976;-74
2023/02/27 00:28:03;;;;;;;2.93;1.70;;;;;;;;;;515945;28;1334;-74
2023/02/27 00:28:19;;;;;;;3.40;1.67;;;;;;;;;;515984;28;1296;-74
2023/02/27 00:28:34;;;;;;;4.00;1.80;;;;;;;;;;516604;28;1393;-74
2023/02/27 00:28:50;;;;;;;4.28;1.80;;;;;;;;;;515151;28;1301;-74
2023/02/27 00:29:05;;;;;;;3.67;1.70;;;;;;;;;;516551;28;1229;-74
2023/02/27 00:29:21;;;;;;;3.55;1.70;;;;;;;;;;516741;28;1480;-74
2023/02/27 00:29:36;;;;;;;3.37;1.70;;;;;;;;;;517903;28;1406;-74
2023/02/27 00:29:51;;;;;;;3.25;1.70;;;;;;;;;;514392;28;1238;-75
2023/02/27 00:30:10;;;;;;;3.77;1.93;;;;;;;;;;516753;28;1388;-74
2023/02/27 00:30:26;;;;;;;4.45;1.90;;;;;;;;;;516378;28;1215;-74
2023/02/27 00:30:41;;;;;;;4.70;1.93;;;;;;;;;;514919;28;1489;-74
2023/02/27 00:30:56;;;;;;;3.60;1.80;;;;;;;;;;516866;28;1255;-74
2023/02/27 00:31:12;;;;;;;3.47;1.53;;;;;;;;;;516808;28;1477;-74
2023/02/27 00:31:27;;;;;;;3.72;1.63;;;;;;;;;;518283;28;1314;-74
2023/02/27 00:31:42;;;;;;;4.10;1.70;;;;;;;;;;520704;28;1479;-74
2023/02/27 00:31:59;;;;;;;3.87;1.73;;;;;;;;;;518433;28;1279;-74
2023/02/27 00:32:14;;;;;;;3.78;1.73;;;;;;;;;;516128;28;1484;-74
2023/02/27 00:32:29;;;;;;;3.53;1.60;;;;;;;;;;517672;28;1323;-74
2023/02/27 00:32:44;;;;;;;2.97;1.50;;;;;;;;;;516317;28;1277;-73
2023/02/27 00:33:00;;;;;;;3.00;1.60;;;;;;;;;;518165;28;1513;-74
2023/02/27 00:33:15;;;;;;;3.00;1.60;;;;;;;;;;521785;28;1401;-74
2023/02/27 00:33:30;;;;;;;3.27;1.67;;;;;;;;;;519869;28;1382;-74
2023/02/27 00:33:46;;;;;;;3.30;1.70;;;;;;;;;;521089;28;1386;-74
2023/02/27 00:34:02;;;;;;;3.33;1.67;;;;;;;;;;516633;28;1362;-74
2023/02/27 00:34:18;;;;;;;2.65;1.55;;;;;;;;;;518197;28;1613;-74
2023/02/27 00:34:33;;;;;;;2.80;1.60;;;;;;;;;;515913;28;1497;-74
2023/02/27 00:34:48;;;;;;;2.93;1.60;;;;;;;;;;518380;28;1259;-74
2023/02/27 00:35:06;;;;;;;3.83;1.57;;;;;;;;;;517301;28;1587;-74
2023/02/27 00:35:21;;;;;;;4.75;1.90;;;;;;;;;;515906;28;1477;-74
2023/02/27 00:35:36;;;;;;;3.83;1.77;;;;;;;;;;519046;28;1286;-74
2023/02/27 00:35:56;;;;;;;2.53;1.50;;;;;;;;;;518027;28;1563;-74
2023/02/27 00:36:12;;;;;;;3.05;1.50;;;;;;;;;;514456;28;1308;-74
2023/02/27 00:36:27;;;;;;;2.90;1.50;;;;;;;;;;517341;28;1279;-74
2023/02/27 00:36:42;;;;;;;2.43;1.30;;;;;;;;;;516761;28;1290;-74
2023/02/27 00:36:58;;;;;;;2.33;1.30;;;;;;;;;;519865;28;1406;-74
2023/02/27 00:37:13;;;;;;;3.83;1.53;;;;;;;;;;519202;28;1367;-74
2023/02/27 00:37:28;;;;;;;4.33;1.70;;;;;;;;;;518243;28;1229;-74
2023/02/27 00:37:44;;;;;;;3.42;1.65;;;;;;;;;;516183;28;1261;-74
2023/02/27 00:37:59;;;;;;;3.57;1.60;;;;;;;;;;515382;28;1236;-74
2023/02/27 00:38:14;;;;;;;3.30;1.57;;;;;;;;;;516133;28;1109;-74
2023/02/27 00:38:30;;;;;;;2.63;1.60;;;;;;;;;;513527;28;1194;-74
2023/02/27 00:38:45;;;;;;;2.60;1.60;;;;;;;;;;512509;28;1124;-74
2023/02/27 00:39:00;;;;;;;2.70;1.53;;;;;;;;;;515211;28;1208;-74
2023/02/27 00:39:16;;;;;;;2.40;1.48;;;;;;;;;;518235;28;1393;-74
2023/02/27 00:39:31;;;;;;;2.27;1.40;;;;;;;;;;517952;28;1180;-74
2023/02/27 00:39:46;;;;;;;2.90;1.40;;;;;;;;;;519855;28;1340;-75
2023/02/27 00:40:04;;;;;;;3.13;1.57;;;;;;;;;;519781;28;1191;-75
2023/02/27 00:40:19;;;;;;;3.28;1.60;;;;;;;;;;518485;28;1397;-74
2023/02/27 00:40:34;;;;;;;3.42;1.73;;;;;;;;;;518679;28;1426;-75
2023/02/27 00:40:50;;;;;;;3.30;1.80;;;;;;;;;;517949;28;1281;-75
2023/02/27 00:41:05;;;;;;;3.05;1.52;;;;;;;;;;519091;28;1509;-75
2023/02/27 00:41:20;;;;;;;2.97;1.50;;;;;;;;;;516073;28;1255;-75
2023/02/27 00:41:36;;;;;;;3.17;1.63;;;;;;;;;;517109;28;1335;-74
2023/02/27 00:41:51;;;;;;;3.70;1.70;;;;;;;;;;516358;28;1231;-75
2023/02/27 00:42:07;;;;;;;3.40;1.60;;;;;;;;;;520237;28;1402;-75
2023/02/27 00:42:22;;;;;;;2.50;1.42;;;;;;;;;;518520;28;1318;-75
2023/02/27 00:42:37;;;;;;;2.83;1.50;;;;;;;;;;518377;28;1324;-75
2023/02/27 00:42:53;;;;;;;3.23;1.47;;;;;;;;;;519149;28;1349;-74
2023/02/27 00:43:08;;;;;;;3.10;1.50;;;;;;;;;;521022;28;1428;-75
2023/02/27 00:43:23;;;;;;;3.07;1.50;;;;;;;;;;519081;28;1209;-75
2023/02/27 00:43:39;;;;;;;2.87;1.40;;;;;;;;;;517833;28;1539;-75
2023/02/27 00:43:54;;;;;;;3.08;1.50;;;;;;;;;;517644;28;1097;-75
2023/02/27 00:44:09;;;;;;;3.10;1.43;;;;;;;;;;514404;28;1099;-75
2023/02/27 00:44:25;;;;;;;2.60;1.30;;;;;;;;;;514186;28;1307;-74
2023/02/27 00:44:40;;;;;;;3.30;1.50;;;;;;;;;;514304;28;1265;-74
2023/02/27 00:44:55;;;;;;;3.80;1.70;;;;;;;;;;514667;28;1224;-74
2023/02/27 00:45:11;;;;;;;3.50;1.60;;;;;;;;;;516218;28;1252;-74
2023/02/27 00:45:26;;;;;;;3.33;1.40;;;;;;;;;;516164;28;1226;-74
2023/02/27 00:45:42;;;;;;;2.87;1.40;;;;;;;;;;516389;28;1240;-75
2023/02/27 00:45:57;;;;;;;2.80;1.42;;;;;;;;;;518896;28;1326;-75
2023/02/27 00:46:12;;;;;;;3.23;1.50;;;;;;;;;;516267;28;1309;-75
2023/02/27 00:46:28;;;;;;;3.25;1.40;;;;;;;;;;514609;28;1322;-73
2023/02/27 00:46:43;;;;;;;3.07;1.33;;;;;;;;;;516106;28;1402;-73
2023/02/27 00:46:58;;;;;;;3.20;1.40;;;;;;;;;;515822;28;1166;-73
2023/02/27 00:47:14;;;;;;;3.90;1.33;;;;;;;;;;518849;28;1249;-73
2023/02/27 00:47:29;;;;;;;3.97;1.50;;;;;;;;;;515316;28;1428;-74
2023/02/27 00:47:45;;;;;;;3.00;1.60;;;;;;;;;;514619;28;1910;-75
2023/02/27 00:48:00;;;;;;;3.37;1.60;;;;;;;;;;518873;28;1227;-75
2023/02/27 00:48:15;;;;;;;3.53;1.50;;;;;;;;;;516005;28;1477;-74
2023/02/27 00:48:31;;;;;;;3.27;1.33;;;;;;;;;;520755;28;1284;-74
2023/02/27 00:48:46;;;;;;;2.93;1.40;;;;;;;;;;517474;28;1587;-74
2023/02/27 00:49:01;;;;;;;3.63;1.40;;;;;;;;;;517920;28;1239;-75
2023/02/27 00:49:18;;;;;;;3.70;1.40;;;;;;;;;;518773;28;1207;-74
2023/02/27 00:49:33;;;;;;;3.15;1.55;;;;;;;;;;518635;28;1707;-74
2023/02/27 00:49:49;;;;;;;3.00;1.50;;;;;;;;;;519570;28;1635;-74
2023/02/27 00:50:05;;;;;;;3.13;1.48;;;;;;;;;;516950;28;1215;-74
2023/02/27 00:50:20;;;;;;;3.15;1.50;;;;;;;;;;518821;28;1264;-74
2023/02/27 00:50:36;;;;;;;2.83;1.40;;;;;;;;;;519037;28;1362;-74
2023/02/27 00:50:52;;;;;;;3.10;1.50;;;;;;;;;;516915;28;1435;-74
2023/02/27 00:51:07;;;;;;;3.33;1.57;;;;;;;;;;519749;28;1296;-75
2023/02/27 00:51:22;;;;;;;4.03;1.70;;;;;;;;;;517632;28;1322;-74
2023/02/27 00:51:38;;;;;;;3.80;1.80;;;;;;;;;;518853;28;1303;-74
2023/02/27 00:51:53;;;;;;;2.75;1.50;;;;;;;;;;519692;28;1247;-74
2023/02/27 00:52:09;;;;;;;3.13;1.47;;;;;;;;;;519729;28;1227;-74
2023/02/27 00:52:25;;;;;;;3.97;1.45;;;;;;;;;;517195;28;1305;-74
2023/02/27 00:52:40;;;;;;;3.28;1.33;;;;;;;;;;516851;28;1358;-74
2023/02/27 00:52:55;;;;;;;2.77;1.50;;;;;;;;;;519263;28;1220;-74
2023/02/27 00:53:11;;;;;;;2.63;1.50;;;;;;;;;;516691;28;1284;-74
2023/02/27 00:53:26;;;;;;;2.72;1.30;;;;;;;;;;516775;28;1417;-74
2023/02/27 00:53:41;;;;;;;3.13;1.43;;;;;;;;;;515547;28;1369;-74
2023/02/27 00:53:57;;;;;;;3.83;1.40;;;;;;;;;;513859;28;1231;-75
2023/02/27 00:54:12;;;;;;;3.30;1.43;;;;;;;;;;512700;28;1268;-74
2023/02/27 00:54:27;;;;;;;2.40;1.40;;;;;;;;;;515833;28;1352;-75
2023/02/27 00:54:43;;;;;;;2.28;1.33;;;;;;;;;;515378;28;1308;-75
2023/02/27 00:54:59;;;;;;;2.77;1.40;;;;;;;;;;516054;28;1394;-75
2023/02/27 00:55:14;;;;;;;3.13;1.40;;;;;;;;;;515725;28;1486;-74
2023/02/27 00:55:30;;;;;;;2.77;1.30;;;;;;;;;;515111;28;1273;-75
2023/02/27 00:55:45;;;;;;;2.70;1.38;;;;;;;;;;516601;28;1229;-75
2023/02/27 00:56:00;;;;;;;2.53;1.40;;;;;;;;;;516676;28;1332;-74
2023/02/27 00:56:16;;;;;;;2.63;1.40;;;;;;;;;;515947;28;1193;-74
2023/02/27 00:56:31;;;;;;;3.00;1.50;;;;;;;;;;518183;28;1203;-74
2023/02/27 00:56:46;;;;;;;3.33;1.40;;;;;;;;;;519650;28;1337;-74
2023/02/27 00:57:02;;;;;;;2.70;1.20;;;;;;;;;;520987;28;1318;-74
2023/02/27 00:57:17;;;;;;;2.70;1.30;;;;;;;;;;518357;28;1286;-74
2023/02/27 00:57:33;;;;;;;3.40;1.42;;;;;;;;;;521596;28;1366;-74
2023/02/27 00:57:48;;;;;;;3.10;1.43;;;;;;;;;;520020;28;1259;-74
2023/02/27 00:58:03;;;;;;;3.00;1.40;;;;;;;;;;515996;28;1243;-75
2023/02/27 00:58:19;;;;;;;3.13;1.40;;;;;;;;;;514694;28;1190;-74
2023/02/27 00:58:34;;;;;;;2.88;1.40;;;;;;;;;;516694;28;1372;-74
2023/02/27 00:58:50;;;;;;;2.97;1.40;;;;;;;;;;518156;28;1303;-74
2023/02/27 00:59:05;;;;;;;2.57;1.40;;;;;;;;;;521063;28;1291;-75
2023/02/27 00:59:21;;;;;;;2.33;1.33;;;;;;;;;;519919;28;1373;-74
2023/02/27 00:59:36;;;;;;;2.22;1.30;;;;;;;;;;519043;28;1221;-74
2023/02/27 00:59:51;;;;;;;2.10;1.40;;;;;;;;;;519920;28;1201;-74
2023/02/27 01:00:08;;;;;;;2.30;1.40;;;;;;;;;;515938;28;1322;-74
2023/02/27 01:00:24;;;;;;;2.35;1.30;;;;;;;;;;517810;28;1259;-74
2023/02/27 01:00:39;;;;;;;2.78;1.30;;;;;;;;;;517150;28;1548;-74
2023/02/27 01:00:54;;;;;;;2.80;1.40;;;;;;;;;;515139;28;1250;-74
2023/02/27 01:01:10;;;;;;;3.37;1.40;;;;;;;;;;514526;28;1212;-74
2023/02/27 01:01:25;;;;;;;3.08;1.52;;;;;;;;;;516284;28;1204;-74
2023/02/27 01:01:41;;;;;;;2.03;1.40;;;;;;;;;;516631;28;1248;-74
2023/02/27 01:01:56;;;;;;;2.63;1.40;;;;;;;;;;517421;28;1484;-74
2023/02/27 01:02:11;;;;;;;3.10;1.50;;;;;;;;;;517321;28;1307;-74
2023/02/27 01:02:27;;;;;;;2.97;1.50;;;;;;;;;;514956;28;1460;-74
2023/02/27 01:02:42;;;;;;;2.75;1.40;;;;;;;;;;517646;28;1267;-74
2023/02/27 01:02:57;;;;;;;2.40;1.20;;;;;;;;;;516961;28;1200;-74
2023/02/27 01:03:12;;;;;;;2.00;1.20;;;;;;;;;;518821;28;1208;-74
2023/02/27 01:03:28;;;;;;;2.40;1.27;;;;;;;;;;519756;28;1268;-74
2023/02/27 01:03:43;;;;;;;2.80;1.33;;;;;;;;;;518038;28;1215;-74
2023/02/27 01:03:58;;;;;;;3.00;1.50;;;;;;;;;;516264;28;1341;-75
2023/02/27 01:04:14;;;;;;;2.85;1.40;;;;;;;;;;515088;28;1450;-74
2023/02/27 01:04:29;;;;;;;2.67;1.33;;;;;;;;;;517983;28;1157;-74
2023/02/27 01:04:44;;;;;;;3.20;1.50;;;;;;;;;;518914;28;1243;-75
2023/02/27 01:05:01;;;;;;;3.20;1.35;;;;;;;;;;516946;28;1228;-74
2023/02/27 01:05:16;;;;;;;2.40;1.25;;;;;;;;;;516045;28;1456;-75
2023/02/27 01:05:32;;;;;;;2.67;1.45;;;;;;;;;;518712;28;1307;-74
2023/02/27 01:05:47;;;;;;;3.07;1.50;;;;;;;;;;515804;28;1244;-74
2023/02/27 01:06:02;;;;;;;2.67;1.40;;;;;;;;;;517551;28;1310;-75
2023/02/27 01:06:18;;;;;;;2.60;1.40;;;;;;;;;;515812;28;1481;-75
2023/02/27 01:06:33;;;;;;;2.13;1.30;;;;;;;;;;518200;28;1207;-74
2023/02/27 01:06:48;;;;;;;2.13;1.20;;;;;;;;;;516353;28;1480;-74
2023/02/27 01:07:04;;;;;;;3.30;1.30;;;;;;;;;;519492;28;1224;-75
2023/02/27 01:07:19;;;;;;;3.30;1.37;;;;;;;;;;518488;28;1290;-74
2023/02/27 01:07:36;;;;;;;2.88;1.42;;;;;;;;;;516355;28;1228;-74
2023/02/27 01:07:51;;;;;;;3.00;1.50;;;;;;;;;;517793;28;1415;-75
2023/02/27 01:08:06;;;;;;;2.72;1.40;;;;;;;;;;515122;28;1244;-75
2023/02/27 01:08:22;;;;;;;3.23;1.43;;;;;;;;;;513518;28;1304;-74
2023/02/27 01:08:37;;;;;;;3.13;1.40;;;;;;;;;;514722;28;1208;-75
2023/02/27 01:08:52;;;;;;;2.67;1.40;;;;;;;;;;516408;28;1217;-75
2023/02/27 01:09:08;;;;;;;3.20;1.60;;;;;;;;;;514622;28;1131;-75
2023/02/27 01:09:23;;;;;;;3.40;1.60;;;;;;;;;;514949;28;1405;-75
2023/02/27 01:09:39;;;;;;;2.80;1.47;;;;;;;;;;514974;28;1360;-75
2023/02/27 01:09:54;;;;;;;3.00;1.35;;;;;;;;;;514428;28;1302;-75
2023/02/27 01:10:11;;;;;;;2.83;1.50;;;;;;;;;;515295;28;1329;-75
2023/02/27 01:10:26;;;;;;;2.38;1.50;;;;;;;;;;515920;28;1406;-75
2023/02/27 01:10:42;;;;;;;3.10;1.40;;;;;;;;;;512309;28;1264;-75
2023/02/27 01:10:57;;;;;;;3.63;1.40;;;;;;;;;;515537;28;1271;-74
2023/02/27 01:11:13;;;;;;;3.47;1.43;;;;;;;;;;515500;28;1194;-74
2023/02/27 01:11:28;;;;;;;3.10;1.45;;;;;;;;;;518367;28;1331;-74
2023/02/27 01:11:44;;;;;;;2.75;1.50;;;;;;;;;;515152;28;1331;-73
2023/02/27 01:11:59;;;;;;;2.70;1.43;;;;;;;;;;514600;28;1387;-75
2023/02/27 01:12:14;;;;;;;2.73;1.40;;;;;;;;;;514585;28;1188;-75
2023/02/27 01:12:30;;;;;;;2.42;1.33;;;;;;;;;;517005;28;1265;-75
2023/02/27 01:12:45;;;;;;;2.27;1.27;;;;;;;;;;517320;28;1295;-74
2023/02/27 01:13:01;;;;;;;2.30;1.40;;;;;;;;;;515146;28;1436;-75
2023/02/27 01:13:16;;;;;;;2.28;1.33;;;;;;;;;;517665;28;1196;-75
2023/02/27 01:13:31;;;;;;;3.33;1.40;;;;;;;;;;519894;28;1164;-75
2023/02/27 01:13:46;;;;;;;3.43;1.43;;;;;;;;;;521636;28;1492;-74
2023/02/27 01:14:02;;;;;;;2.80;1.45;;;;;;;;;;519408;28;1196;-75
2023/02/27 01:14:18;;;;;;;2.63;1.43;;;;;;;;;;520063;28;1256;-75
2023/02/27 01:14:34;;;;;;;2.55;1.35;;;;;;;;;;515413;28;1268;-74
2023/02/27 01:14:50;;;;;;;3.00;1.35;;;;;;;;;;517401;28;1460;-74
2023/02/27 01:15:07;;;;;;;3.30;1.50;;;;;;;;;;515470;28;1422;-74
2023/02/27 01:15:22;;;;;;;2.50;1.35;;;;;;;;;;519193;28;1599;-75
2023/02/27 01:15:38;;;;;;;3.00;1.38;;;;;;;;;;519164;28;1219;-74
2023/02/27 01:15:53;;;;;;;3.37;1.50;;;;;;;;;;519661;28;1355;-75
2023/02/27 01:16:09;;;;;;;3.10;1.43;;;;;;;;;;517282;28;1332;-74
2023/02/27 01:16:24;;;;;;;2.95;1.30;;;;;;;;;;516595;28;1143;-75
2023/02/27 01:16:40;;;;;;;2.50;1.27;;;;;;;;;;513564;28;1208;-74
2023/02/27 01:16:56;;;;;;;2.73;1.43;;;;;;;;;;512209;28;1339;-75
2023/02/27 01:17:12;;;;;;;2.92;1.50;;;;;;;;;;513656;28;1275;-74
2023/02/27 01:17:27;;;;;;;2.57;1.30;;;;;;;;;;514806;28;1257;-74
2023/02/27 01:17:43;;;;;;;2.08;1.20;;;;;;;;;;513392;28;1404;-75
2023/02/27 01:17:58;;;;;;;2.20;1.30;;;;;;;;;;517007;28;1247;-74
2023/02/27 01:18:14;;;;;;;2.80;1.42;;;;;;;;;;518887;28;1369;-75
2023/02/27 01:18:29;;;;;;;2.70;1.42;;;;;;;;;;520719;28;1251;-75
2023/02/27 01:18:45;;;;;;;2.33;1.40;;;;;;;;;;519839;28;1450;-74
2023/02/27 01:19:01;;;;;;;2.20;1.30;;;;;;;;;;521393;28;1509;-74
2023/02/27 01:19:16;;;;;;;3.17;1.38;;;;;;;;;;520629;28;1256;-74
2023/02/27 01:19:32;;;;;;;4.30;1.50;;;;;;;;;;516616;28;1695;-75
2023/02/27 01:19:47;;;;;;;3.92;1.67;;;;;;;;;;516948;28;1534;-74
2023/02/27 01:20:03;;;;;;;3.27;1.60;;;;;;;;;;517189;28;1428;-74
2023/02/27 01:20:19;;;;;;;3.10;1.35;;;;;;;;;;519536;28;1495;-75
2023/02/27 01:20:34;;;;;;;2.85;1.30;;;;;;;;;;517825;28;1373;-74
2023/02/27 01:20:53;;;;;;;2.97;1.40;;;;;;;;;;520511;28;1380;-75
2023/02/27 01:21:09;;;;;;;2.63;1.35;;;;;;;;;;518379;28;1529;-75
2023/02/27 01:21:24;;;;;;;2.80;1.35;;;;;;;;;;518790;28;1209;-75
2023/02/27 01:21:40;;;;;;;2.70;1.40;;;;;;;;;;520458;28;1161;-75
2023/02/27 01:21:56;;;;;;;2.25;1.30;;;;;;;;;;519577;28;1381;-75
2023/02/27 01:22:11;;;;;;;2.30;1.30;;;;;;;;;;517293;28;1281;-74
2023/02/27 01:22:27;;;;;;;3.08;1.40;;;;;;;;;;519295;28;1261;-74
2023/02/27 01:22:42;;;;;;;3.43;1.40;;;;;;;;;;519226;28;1265;-75
2023/02/27 01:22:57;;;;;;;2.63;1.30;;;;;;;;;;516525;28;1229;-74
2023/02/27 01:23:12;;;;;;;2.33;1.23;;;;;;;;;;516407;28;1248;-75
2023/02/27 01:23:28;;;;;;;2.67;1.30;;;;;;;;;;518305;28;1328;-75
2023/02/27 01:23:43;;;;;;;2.67;1.40;;;;;;;;;;518809;28;1204;-75
2023/02/27 01:23:59;;;;;;;3.03;1.50;;;;;;;;;;517738;28;1202;-75
2023/02/27 01:24:15;;;;;;;2.77;1.40;;;;;;;;;;519652;28;1354;-75
2023/02/27 01:24:31;;;;;;;2.38;1.30;;;;;;;;;;515733;28;1544;-75
2023/02/27 01:24:46;;;;;;;2.60;1.30;;;;;;;;;;519719;28;1289;-75
2023/02/27 01:25:02;;;;;;;2.95;1.40;;;;;;;;;;514061;28;1258;-75
2023/02/27 01:25:17;;;;;;;2.93;1.47;;;;;;;;;;516331;28;1224;-75
2023/02/27 01:25:33;;;;;;;3.03;1.40;;;;;;;;;;517689;28;1237;-75
2023/02/27 01:25:49;;;;;;;2.95;1.33;;;;;;;;;;516961;28;1122;-75
2023/02/27 01:26:04;;;;;;;2.20;1.30;;;;;;;;;;519282;28;1384;-75
2023/02/27 01:26:20;;;;;;;2.20;1.30;;;;;;;;;;517330;28;1406;-75
2023/02/27 01:26:35;;;;;;;2.67;1.47;;;;;;;;;;513267;28;1213;-75
2023/02/27 01:26:51;;;;;;;2.88;1.50;;;;;;;;;;517055;28;1247;-75
2023/02/27 01:27:06;;;;;;;2.45;1.38;;;;;;;;;;517399;28;1513;-75
2023/02/27 01:27:22;;;;;;;2.03;1.30;;;;;;;;;;515982;28;1325;-75
2023/02/27 01:27:37;;;;;;;2.08;1.30;;;;;;;;;;516745;28;1950;-75
2023/02/27 01:27:52;;;;;;;2.40;1.30;;;;;;;;;;519073;28;1541;-75
2023/02/27 01:28:08;;;;;;;3.00;1.50;;;;;;;;;;519283;28;1216;-75
2023/02/27 01:28:23;;;;;;;3.17;1.50;;;;;;;;;;516913;28;1185;-75
2023/02/27 01:28:38;;;;;;;2.97;1.40;;;;;;;;;;518106;28;1148;-75
2023/02/27 01:28:54;;;;;;;3.00;1.47;;;;;;;;;;517754;28;1449;-75
2023/02/27 01:29:12;;;;;;;3.83;1.50;;;;;;;;;;521124;28;1227;-74
2023/02/27 01:29:28;;;;;;;3.42;1.60;;;;;;;;;;517584;28;1391;-74
2023/02/27 01:29:43;;;;;;;2.50;1.45;;;;;;;;;;520785;28;1224;-74
2023/02/27 01:29:58;;;;;;;2.40;1.40;;;;;;;;;;515715;28;1363;-75
2023/02/27 01:30:15;;;;;;;2.45;1.40;;;;;;;;;;520534;28;1159;-74
2023/02/27 01:30:30;;;;;;;3.08;1.40;;;;;;;;;;517370;28;1552;-73
2023/02/27 01:30:45;;;;;;;3.20;1.30;;;;;;;;;;519447;28;1192;-73
2023/02/27 01:31:01;;;;;;;2.63;1.33;;;;;;;;;;517480;28;1299;-75
2023/02/27 01:31:16;;;;;;;2.40;1.40;;;;;;;;;;516230;28;1218;-74
2023/02/27 01:31:32;;;;;;;2.35;1.33;;;;;;;;;;519142;28;1491;-74
2023/02/27 01:31:48;;;;;;;2.13;1.30;;;;;;;;;;520622;28;1347;-74
2023/02/27 01:32:03;;;;;;;1.90;1.30;;;;;;;;;;515153;28;1308;-74
2023/02/27 01:32:18;;;;;;;1.93;1.30;;;;;;;;;;514572;28;1220;-74
2023/02/27 01:32:34;;;;;;;2.88;1.50;;;;;;;;;;515158;28;1138;-74
2023/02/27 01:32:49;;;;;;;3.00;1.53;;;;;;;;;;517055;28;1334;-73
2023/02/27 01:33:04;;;;;;;2.50;1.40;;;;;;;;;;516299;28;1247;-73
2023/02/27 01:33:20;;;;;;;2.45;1.35;;;;;;;;;;518419;28;1413;-74
2023/02/27 01:33:35;;;;;;;2.50;1.40;;;;;;;;;;519605;28;1095;-73
2023/02/27 01:33:51;;;;;;;2.58;1.30;;;;;;;;;;520434;28;1157;-74
2023/02/27 01:34:06;;;;;;;2.33;1.30;;;;;;;;;;518768;28;1295;-74
2023/02/27 01:34:22;;;;;;;2.70;1.30;;;;;;;;;;520130;28;1410;-74
2023/02/27 01:34:37;;;;;;;2.83;1.30;;;;;;;;;;521829;28;1221;-74
2023/02/27 01:34:52;;;;;;;3.17;1.40;;;;;;;;;;520386;28;1481;-74
2023/02/27 01:35:08;;;;;;;3.00;1.40;;;;;;;;;;518529;28;1163;-74
2023/02/27 01:35:23;;;;;;;2.33;1.30;;;;;;;;;;516277;28;1293;-74
2023/02/27 01:35:39;;;;;;;2.40;1.40;;;;;;;;;;518260;28;1384;-74
2023/02/27 01:35:55;;;;;;;2.10;1.38;;;;;;;;;;517070;28;1238;-74
2023/02/27 01:36:10;;;;;;;2.27;1.30;;;;;;;;;;518504;28;1355;-75
2023/02/27 01:36:25;;;;;;;3.00;1.40;;;;;;;;;;517653;28;1378;-74